Time;durP1;ratioP1;P1;durP2;ratioP2;P2;SDS_P1;SDS_P2;PMS_P1;PMS_P2;Temp;Humidity;BMP_temperature;BMP_pressure;BME280_temperature;BME280_humidity;BME280_pressure;Samples;Min_cycle;Max_cycle;Signal;HPM_P1;HPM_P2
2022/04/18 07:14:00;;;;;;;;;;;;;;;9.31;56.56;96904.31;4227794;27;10267;-66
2022/04/18 07:16:04;;;;;;;;;;;;;;;9.39;56.18;96906.03;4232568;27;5724;-66
2022/04/18 07:18:05;;;;;;;;;;;;;;;9.48;56.48;96909.41;4241524;27;5766;-65
2022/04/18 07:20:08;;;;;;;;;;;;;;;9.43;56.92;96906.50;4245250;27;5087;-66
2022/04/18 07:22:09;;;;;;;;;;;;;;;9.38;57.13;96906.22;4244156;27;5751;-68
2022/04/18 07:24:11;;;;;;;;;;;;;;;9.46;56.19;96909.59;4240059;27;5767;-66
2022/04/18 07:26:13;;;;;;;;;;;;;;;9.52;57.00;96902.78;4230722;27;5792;-66
2022/04/18 07:28:14;;;;;;;;;;;;;;;8.98;58.17;96908.31;4242353;27;6584;-66
2022/04/18 07:30:16;;;;;;;;;;;;;;;9.14;57.57;96907.31;4239824;27;5828;-67
2022/04/18 07:32:17;;;;;;;;;;;;;;;9.21;57.11;96908.22;4232560;27;5799;-66
2022/04/18 07:34:19;;;;;;;;;;;;;;;9.31;56.78;96908.78;4242364;27;5905;-66
2022/04/18 07:36:21;;;;;;;;;;;;;;;9.41;56.64;96911.97;4242622;27;5750;-67
2022/04/18 07:40:43;;;;;;;;;;;;;;;9.10;57.99;96916.59;4244323;27;5821;-68
2022/04/18 07:42:44;;;;;;;;;;;;;;;8.97;56.09;96923.31;4230573;27;5756;-68
2022/04/18 07:44:46;;;;;;;;;;;;;;;9.23;56.07;96917.59;4228680;27;5862;-68
2022/04/18 07:46:48;;;;;;;;;;;;;;;9.35;54.80;96912.69;4236559;27;5888;-67
2022/04/18 07:48:51;;;;;;;;;;;;;;;9.36;54.46;96918.78;4243143;27;5837;-68
2022/04/18 07:53:13;;;;;;;;;;;;;;;9.50;53.56;96913.47;4239403;27;5670;-67
2022/04/18 07:55:15;;;;;;;;;;;;;;;9.54;53.13;96909.50;4238795;27;5672;-67
2022/04/18 07:57:16;;;;;;;;;;;;;;;9.66;52.87;96912.47;4231134;28;5088;-67
2022/04/18 07:59:18;;;;;;;;;;;;;;;9.68;53.20;96912.28;4232248;27;7773;-67
2022/04/18 08:01:20;;;;;;;;;;;;;;;9.69;53.14;96916.56;4241765;27;7778;-68
2022/04/18 08:03:22;;;;;;;;;;;;;;;9.71;52.93;96910.09;4217491;28;5628;-68
2022/04/18 08:05:24;;;;;;;;;;;;;;;9.79;52.96;96907.34;4237793;27;5647;-67
2022/04/18 08:07:25;;;;;;;;;;;;;;;9.72;53.93;96905.63;4241550;27;5808;-68
2022/04/18 08:09:27;;;;;;;;;;;;;;;9.82;53.29;96906.97;4245967;27;5664;-68
2022/04/18 08:11:29;;;;;;;;;;;;;;;9.72;53.32;96908.28;4247271;27;5715;-68
2022/04/18 08:13:31;;;;;;;;;;;;;;;9.65;53.06;96910.03;4240769;27;5656;-68
2022/04/18 08:15:33;;;;;;;;;;;;;;;9.71;52.27;96904.81;4223902;28;5668;-68
2022/04/18 08:17:35;;;;;;;;;;;;;;;9.86;52.17;96908.25;4233169;28;5711;-67
2022/04/18 08:19:39;;;;;;;;;;;;;;;9.91;52.20;96905.88;4235148;28;5651;-68
2022/04/18 08:21:40;;;;;;;;;;;;;;;10.00;51.98;96900.47;4233250;27;5658;-67
2022/04/18 08:23:43;;;;;;;;;;;;;;;10.13;52.12;96908.53;4227200;28;5723;-67
2022/04/18 08:25:45;;;;;;;;;;;;;;;10.08;52.61;96900.34;4225199;28;5783;-67
2022/04/18 08:27:47;;;;;;;;;;;;;;;9.98;52.66;96897.22;4234961;28;5671;-67
2022/04/18 08:29:48;;;;;;;;;;;;;;;10.13;50.98;96900.63;4228122;27;5734;-67
2022/04/18 08:31:50;;;;;;;;;;;;;;;10.13;51.19;96901.44;4225240;28;5783;-67
2022/04/18 08:33:52;;;;;;;;;;;;;;;10.16;51.64;96898.41;4218214;28;5609;-67
2022/04/18 08:35:54;;;;;;;;;;;;;;;10.09;51.38;96900.19;4233002;28;5652;-67
2022/04/18 08:37:55;;;;;;;;;;;;;;;10.24;50.93;96899.34;4236010;28;5742;-67
2022/04/18 08:39:57;;;;;;;;;;;;;;;10.20;51.18;96897.03;4233099;28;5664;-67
2022/04/18 08:41:59;;;;;;;;;;;;;;;10.05;51.13;96895.44;4233042;27;5796;-62
2022/04/18 08:44:03;;;;;;;;;;;;;;;10.20;51.29;96901.50;4234245;28;5680;-67
2022/04/18 08:46:05;;;;;;;;;;;;;;;10.20;51.87;96901.50;4217981;28;6574;-68
2022/04/18 08:52:50;;;;;;;;;;;;;;;10.32;51.57;96907.16;4227828;28;5710;-69
2022/04/18 08:54:52;;;;;;;;;;;;;;;10.32;51.47;96907.16;4222387;28;5732;-69
2022/04/18 08:56:58;;;;;;;;;;;;;;;10.36;50.76;96908.41;4232308;28;6324;-69
2022/04/18 08:59:00;;;;;;;;;;;;;;;10.40;51.08;96904.38;4229712;28;6022;-70
2022/04/18 09:01:03;;;;;;;;;;;;;;;10.30;50.85;96909.13;4232068;28;5774;-69
2022/04/18 09:03:08;;;;;;;;;;;;;;;10.40;50.76;96902.53;4229123;28;5817;-66
2022/04/18 09:05:11;;;;;;;;;;;;;;;10.47;50.48;96903.44;4226684;28;5714;-71
2022/04/18 09:07:14;;;;;;;;;;;;;;;10.41;50.32;96901.53;4228213;27;5092;-70
2022/04/18 09:09:24;;;;;;;;;;;;;;;10.30;51.00;96904.66;4232617;27;5869;-70
2022/04/18 09:11:31;;;;;;;;;;;;;;;10.34;50.17;96898.03;4216553;28;5739;-70
2022/04/18 09:13:33;;;;;;;;;;;;;;;10.29;49.83;96904.88;4227539;28;5655;-70
2022/04/18 09:15:34;;;;;;;;;;;;;;;10.43;49.58;96899.53;4220319;28;5672;-70
2022/04/18 09:17:37;;;;;;;;;;;;;;;10.46;49.45;96891.22;4217092;28;5722;-71
2022/04/18 09:19:38;;;;;;;;;;;;;;;10.47;49.20;96895.50;4216909;28;5651;-70
2022/04/18 09:21:56;;;;;;;;;;;;;;;10.53;49.54;96882.50;4217201;28;5609;-70
2022/04/18 09:23:58;;;;;;;;;;;;;;;10.63;49.80;96888.28;4218342;28;6412;-70
2022/04/18 09:26:08;;;;;;;;;;;;;;;10.61;49.08;96888.50;4217206;28;5736;-70
2022/04/18 09:28:11;;;;;;;;;;;;;;;10.66;48.21;96883.47;4218465;28;5723;-71
2022/04/18 09:30:16;;;;;;;;;;;;;;;10.73;48.32;96886.97;4218329;28;5085;-71
2022/04/18 09:32:21;;;;;;;;;;;;;;;10.72;47.24;96884.50;4218075;28;5771;-70
2022/04/18 09:34:24;;;;;;;;;;;;;;;10.68;47.59;96884.09;4218605;28;5629;-70
2022/04/18 09:36:25;;;;;;;;;;;;;;;10.46;46.90;96883.28;4235114;27;5730;-71
2022/04/18 09:38:28;;;;;;;;;;;;;;;10.49;45.58;96871.50;4226258;28;5771;-70
2022/04/18 09:40:33;;;;;;;;;;;;;;;10.57;48.99;96881.16;4218391;28;6007;-71
2022/04/18 09:42:34;;;;;;;;;;;;;;;10.72;48.65;96872.09;4219601;28;5716;-71
2022/04/18 09:44:37;;;;;;;;;;;;;;;10.87;48.39;96877.28;4234878;27;5863;-71
2022/04/18 09:46:39;;;;;;;;;;;;;;;10.95;46.62;96871.03;4223939;28;5787;-71
2022/04/18 09:48:43;;;;;;;;;;;;;;;10.96;46.67;96864.75;4217613;28;5681;-70
2022/04/18 09:50:59;;;;;;;;;;;;;;;10.97;45.95;96863.72;4217927;28;5802;-71
2022/04/18 09:53:01;;;;;;;;;;;;;;;10.83;46.51;96857.53;4217893;28;5681;-71
2022/04/18 09:55:05;;;;;;;;;;;;;;;10.91;46.67;96852.13;4217811;28;5760;-71
2022/04/18 09:57:07;;;;;;;;;;;;;;;10.94;46.87;96853.53;4217834;28;5779;-70
2022/04/18 09:59:14;;;;;;;;;;;;;;;10.90;49.60;96853.13;4217452;28;5681;-70
2022/04/18 10:01:16;;;;;;;;;;;;;;;10.95;48.87;96853.34;4217941;28;5779;-70
2022/04/18 10:03:19;;;;;;;;;;;;;;;11.14;48.45;96848.38;4217340;28;5681;-69
2022/04/18 10:05:21;;;;;;;;;;;;;;;11.28;49.77;96848.25;4217841;28;5740;-70
2022/04/18 10:07:23;;;;;;;;;;;;;;;11.36;50.02;96852.56;4217800;28;5681;-69
2022/04/18 10:09:24;;;;;;;;;;;;;;;11.31;49.51;96849.69;4217470;28;5706;-69
2022/04/18 10:11:26;;;;;;;;;;;;;;;11.36;49.63;96844.63;4217735;28;5764;-72
2022/04/18 10:13:30;;;;;;;;;;;;;;;11.25;49.63;96839.88;4219488;28;5636;-71
2022/04/18 10:15:34;;;;;;;;;;;;;;;11.34;50.18;96847.47;4218448;28;5662;-71
2022/04/18 10:17:38;;;;;;;;;;;;;;;11.25;48.15;96845.19;4227005;27;5103;-70
2022/04/18 10:20:06;;;;;;;;;;;;;;;11.29;48.70;96841.13;4234271;28;5774;-71
2022/04/18 10:22:42;;;;;;;;;;;;;;;11.45;48.50;96843.47;4234396;28;5655;-70
2022/04/18 10:24:53;;;;;;;;;;;;;;;11.63;48.77;96838.41;4233956;28;5781;-71
2022/04/18 10:27:37;;;;;;;;;;;;;;;11.64;48.78;96834.75;4234544;28;5831;-70
2022/04/18 10:29:50;;;;;;;;;;;;;;;11.59;49.80;96823.13;4231095;28;5773;-70
2022/04/18 10:31:53;;;;;;;;;;;;;;;11.63;49.81;96821.72;4234184;28;6355;-69
2022/04/18 10:33:57;;;;;;;;;;;;;;;11.68;48.93;96829.06;4233748;28;5715;-70
2022/04/18 10:36:04;;;;;;;;;;;;;;;11.73;49.55;96822.16;4234178;28;5651;-71
2022/04/18 10:38:06;;;;;;;;;;;;;;;11.73;49.44;96826.63;4234054;28;5072;-71
2022/04/18 10:40:09;;;;;;;;;;;;;;;11.79;49.21;96823.19;4232765;28;5625;-71
2022/04/18 10:42:28;;;;;;;;;;;;;;;11.94;49.13;96829.16;4233301;27;5659;-71
2022/04/18 10:44:34;;;;;;;;;;;;;;;11.97;47.72;96820.00;4250564;27;5772;-71
2022/04/18 10:46:38;;;;;;;;;;;;;;;11.97;47.51;96815.50;4251146;27;5728;-71
2022/04/18 10:48:40;;;;;;;;;;;;;;;11.98;46.54;96809.19;4250816;27;5630;-71
2022/04/18 10:50:45;;;;;;;;;;;;;;;11.88;46.03;96808.75;4251275;27;5635;-70
2022/04/18 10:53:16;;;;;;;;;;;;;;;11.85;45.17;96804.69;4251141;27;5086;-71
2022/04/18 10:55:20;;;;;;;;;;;;;;;11.55;45.65;96798.91;4251258;27;5629;-71
2022/04/18 10:57:26;;;;;;;;;;;;;;;11.69;45.18;96798.94;4251188;27;5737;-71
2022/04/18 10:59:34;;;;;;;;;;;;;;;11.76;45.87;96803.22;4251137;27;5062;-71
2022/04/18 11:01:39;;;;;;;;;;;;;;;11.66;44.98;96797.47;4251260;27;5732;-71
2022/04/18 11:03:56;;;;;;;;;;;;;;;11.62;46.99;96802.38;4250547;27;5539;-70
2022/04/18 11:05:58;;;;;;;;;;;;;;;11.61;45.49;96792.78;4250787;27;7697;-71
2022/04/18 11:08:10;;;;;;;;;;;;;;;11.60;45.28;96790.34;4251102;27;5622;-71
2022/04/18 11:10:23;;;;;;;;;;;;;;;11.84;45.86;96796.94;4250969;27;5653;-70
2022/04/18 11:12:27;;;;;;;;;;;;;;;11.94;45.11;96792.91;4249432;27;5566;-71
2022/04/18 11:14:43;;;;;;;;;;;;;;;11.76;45.36;96789.97;4225437;27;5630;-71
2022/04/18 11:16:45;;;;;;;;;;;;;;;11.96;45.19;96782.09;4234039;28;5730;-71
2022/04/18 11:19:08;;;;;;;;;;;;;;;12.00;43.42;96779.84;4232270;28;5602;-71
2022/04/18 11:21:10;;;;;;;;;;;;;;;11.84;44.56;96775.75;4233704;28;5648;-71
2022/04/18 11:23:14;;;;;;;;;;;;;;;11.99;44.46;96775.56;4229309;27;5684;-70
2022/04/18 11:25:16;;;;;;;;;;;;;;;11.84;44.79;96770.47;4216941;28;5692;-71
2022/04/18 11:27:27;;;;;;;;;;;;;;;11.95;44.72;96773.34;4215444;28;5637;-71
2022/04/18 11:29:33;;;;;;;;;;;;;;;12.08;44.66;96764.56;4217157;28;5696;-71
2022/04/18 11:31:37;;;;;;;;;;;;;;;12.11;44.28;96760.69;4215554;28;6306;-71
2022/04/18 11:33:41;;;;;;;;;;;;;;;12.06;44.59;96761.31;4216450;28;5684;-71
2022/04/18 11:35:43;;;;;;;;;;;;;;;12.24;44.69;96763.38;4217015;28;5700;-71
2022/04/18 11:37:45;;;;;;;;;;;;;;;12.40;44.35;96754.19;4215641;28;5609;-71
2022/04/18 11:39:49;;;;;;;;;;;;;;;12.45;44.22;96749.88;4216789;28;6325;-71
2022/04/18 11:42:07;;;;;;;;;;;;;;;12.50;44.44;96747.44;4216935;28;6528;-71
2022/04/18 11:44:08;;;;;;;;;;;;;;;12.63;44.60;96743.94;4216649;28;5696;-71
2022/04/18 11:46:10;;;;;;;;;;;;;;;12.67;44.49;96734.53;4216827;28;5693;-71
2022/04/18 11:48:13;;;;;;;;;;;;;;;12.72;44.77;96737.41;4229048;28;5688;-71
2022/04/18 11:50:22;;;;;;;;;;;;;;;12.79;45.09;96735.53;4236095;28;6301;-71
2022/04/18 11:52:26;;;;;;;;;;;;;;;12.79;44.08;96732.06;4220116;28;5845;-71
2022/04/18 11:54:28;;;;;;;;;;;;;;;12.61;45.04;96726.63;4223211;28;5647;-71
2022/04/18 11:56:30;;;;;;;;;;;;;;;12.74;44.52;96724.75;4236593;28;5651;-71
2022/04/18 11:58:36;;;;;;;;;;;;;;;12.69;44.75;96727.22;4236611;28;5742;-70
2022/04/18 12:07:46;;;;;;;;;;;;;;;12.81;44.34;96719.44;4236597;27;5654;-71
2022/04/18 12:09:48;;;;;;;;;;;;;;;12.86;44.54;96718.78;4236530;28;5658;-71
2022/04/18 12:11:50;;;;;;;;;;;;;;;12.95;44.16;96715.72;4235188;28;5598;-71
2022/04/18 12:13:51;;;;;;;;;;;;;;;13.07;44.49;96713.22;4235627;28;5711;-71
2022/04/18 12:15:54;;;;;;;;;;;;;;;13.13;44.23;96712.34;4219712;28;5681;-71
2022/04/18 12:17:57;;;;;;;;;;;;;;;13.13;44.50;96712.34;4219840;28;5767;-72
2022/04/18 12:20:21;;;;;;;;;;;;;;;13.19;44.16;96703.59;4217826;28;5612;-71
2022/04/18 12:22:23;;;;;;;;;;;;;;;13.21;44.44;96704.19;4219429;28;5681;-71
2022/04/18 12:24:24;;;;;;;;;;;;;;;13.28;44.39;96701.50;4233710;28;5774;-71
2022/04/18 12:26:28;;;;;;;;;;;;;;;13.34;44.16;96704.13;4236076;28;5734;-71
2022/04/18 12:28:30;;;;;;;;;;;;;;;13.43;44.00;96699.38;4236122;28;5656;-71
2022/04/18 12:30:32;;;;;;;;;;;;;;;13.46;43.88;96696.28;4235955;28;5771;-71
2022/04/18 12:32:38;;;;;;;;;;;;;;;13.47;43.38;96695.25;4234596;28;5593;-70
2022/04/18 12:34:42;;;;;;;;;;;;;;;13.38;44.02;96692.06;4235842;28;5655;-71
2022/04/18 12:36:44;;;;;;;;;;;;;;;13.40;44.17;96687.34;4236000;28;5654;-71
2022/04/18 12:38:47;;;;;;;;;;;;;;;13.25;44.20;96697.44;4235850;28;5743;-71
2022/04/18 12:40:58;;;;;;;;;;;;;;;13.12;43.86;96687.66;4235919;27;5663;-71
2022/04/18 12:43:07;;;;;;;;;;;;;;;13.22;44.94;96683.75;4241100;27;5827;-71
2022/04/18 12:45:08;;;;;;;;;;;;;;;13.21;44.09;96682.94;4252749;27;5630;-71
2022/04/18 12:47:18;;;;;;;;;;;;;;;13.26;44.23;96690.28;4252594;27;5662;-71
2022/04/18 12:49:20;;;;;;;;;;;;;;;13.30;44.73;96679.03;4252809;27;6331;-71
2022/04/18 12:51:39;;;;;;;;;;;;;;;13.40;44.75;96676.72;4250745;27;5718;-71
2022/04/18 12:53:46;;;;;;;;;;;;;;;13.42;44.26;96673.84;4218900;28;6418;-71
2022/04/18 12:56:05;;;;;;;;;;;;;;;13.39;45.33;96669.78;4219194;28;5806;-70
2022/04/18 12:58:21;;;;;;;;;;;;;;;13.49;44.51;96663.19;4219160;28;5700;-71
2022/04/18 13:00:23;;;;;;;;;;;;;;;13.48;44.83;96657.09;4219534;28;5743;-71
2022/04/18 13:02:25;;;;;;;;;;;;;;;13.45;43.44;96662.78;4219075;28;6630;-73
2022/04/18 13:04:27;;;;;;;;;;;;;;;13.55;44.37;96659.66;4218452;28;5669;-71
2022/04/18 13:06:32;;;;;;;;;;;;;;;13.69;44.33;96658.53;4218935;28;5664;-71
2022/04/18 13:08:41;;;;;;;;;;;;;;;13.72;43.00;96654.66;4217336;28;5605;-71
2022/04/18 13:10:44;;;;;;;;;;;;;;;13.77;43.40;96647.66;4218637;28;5681;-72
2022/04/18 13:12:46;;;;;;;;;;;;;;;13.78;43.08;96649.28;4218439;28;5770;-72
2022/04/18 13:15:02;;;;;;;;;;;;;;;13.80;43.47;96644.56;4217225;28;5669;-71
2022/04/18 13:17:06;;;;;;;;;;;;;;;13.85;42.74;96646.59;4218898;28;6358;-71
2022/04/18 13:19:13;;;;;;;;;;;;;;;13.89;43.90;96632.63;4218323;28;5688;-71
2022/04/18 13:21:15;;;;;;;;;;;;;;;13.96;42.82;96622.78;4218539;28;5756;-71
2022/04/18 13:23:17;;;;;;;;;;;;;;;14.05;43.58;96622.50;4218484;28;5676;-71
2022/04/18 13:25:18;;;;;;;;;;;;;;;14.14;43.21;96618.50;4216959;28;5661;-71
2022/04/18 13:27:26;;;;;;;;;;;;;;;14.23;42.94;96614.53;4218450;28;5771;-71
2022/04/18 13:29:28;;;;;;;;;;;;;;;14.15;42.60;96623.59;4218110;28;5661;-71
2022/04/18 13:31:32;;;;;;;;;;;;;;;14.14;43.07;96618.50;4218406;28;5768;-70
2022/04/18 13:33:34;;;;;;;;;;;;;;;14.18;42.94;96619.72;4217745;28;5739;-71
2022/04/18 13:36:30;;;;;;;;;;;;;;;14.02;43.10;96614.94;4218309;28;5771;-71
2022/04/18 13:37:59;;;;;;;;;;;;;;;14.01;42.71;96605.34;4217865;28;5668;-71
2022/04/18 13:40:01;;;;;;;;;;;;;;;14.05;43.22;96606.56;4216776;28;5607;-71
2022/04/18 13:42:02;;;;;;;;;;;;;;;14.23;42.62;96606.56;4216938;28;5096;-71
2022/04/18 13:44:04;;;;;;;;;;;;;;;14.20;42.38;96602.50;4216431;28;5613;-71
2022/04/18 13:46:06;;;;;;;;;;;;;;;14.26;41.96;96600.78;4217939;28;5768;-70
2022/04/18 13:48:08;;;;;;;;;;;;;;;14.28;41.45;96604.06;4216378;28;5730;-70
2022/04/18 13:50:13;;;;;;;;;;;;;;;14.29;40.59;96608.34;4216268;28;5745;-71
2022/04/18 13:52:14;;;;;;;;;;;;;;;14.40;40.97;96591.66;4229992;28;5659;-70
2022/04/18 13:54:16;;;;;;;;;;;;;;;14.35;40.62;96596.81;4232558;28;5639;-71
2022/04/18 13:56:19;;;;;;;;;;;;;;;14.42;40.82;96594.91;4199715;28;5715;-71
2022/04/18 13:58:21;;;;;;;;;;;;;;;14.41;41.50;96587.97;4218076;28;5677;-70
2022/04/18 14:00:23;;;;;;;;;;;;;;;14.33;40.19;96600.72;4217870;28;5697;-71
2022/04/18 14:02:24;;;;;;;;;;;;;;;14.39;40.41;96590.03;4217489;28;5794;-71
2022/04/18 14:04:26;;;;;;;;;;;;;;;14.47;40.50;96587.09;4217392;28;5771;-70
2022/04/18 14:06:29;;;;;;;;;;;;;;;14.46;39.59;96579.34;4216444;28;5721;-72
2022/04/18 14:08:33;;;;;;;;;;;;;;;14.50;39.45;96576.03;4217615;28;7709;-71
2022/04/18 14:10:35;;;;;;;;;;;;;;;14.49;39.69;96579.69;4216418;28;5635;-71
2022/04/18 14:12:37;;;;;;;;;;;;;;;14.54;40.04;96573.72;4216739;28;5622;-72
2022/04/18 14:21:40;;;;;;;;;;;;;;;14.82;40.98;96559.84;4234533;28;5597;-71
2022/04/18 14:23:41;;;;;;;;;;;;;;;14.87;40.73;96552.00;4225586;28;5668;-70
2022/04/18 14:25:43;;;;;;;;;;;;;;;14.94;40.71;96550.03;4199159;28;5717;-70
2022/04/18 14:27:45;;;;;;;;;;;;;;;14.95;39.42;96557.03;4217459;28;5687;-71
2022/04/18 14:29:48;;;;;;;;;;;;;;;14.91;39.40;96563.81;4217348;28;5620;-70
2022/04/18 14:31:50;;;;;;;;;;;;;;;14.89;38.54;96552.59;4217013;28;5645;-71
2022/04/18 14:33:52;;;;;;;;;;;;;;;14.98;39.63;96553.91;4217104;28;5727;-70
2022/04/18 14:35:54;;;;;;;;;;;;;;;14.93;39.66;96551.09;4217467;28;5627;-70
2022/04/18 14:37:56;;;;;;;;;;;;;;;14.98;39.63;96547.78;4217540;28;5700;-71
2022/04/18 14:39:57;;;;;;;;;;;;;;;15.08;40.06;96545.38;4217470;28;5620;-71
2022/04/18 14:41:59;;;;;;;;;;;;;;;15.13;39.43;96542.81;4217323;28;5605;-71
2022/04/18 14:44:02;;;;;;;;;;;;;;;15.19;40.06;96541.94;4211337;28;5764;-70
2022/04/18 14:46:04;;;;;;;;;;;;;;;15.24;39.84;96535.91;4217060;28;5621;-71
2022/04/18 14:48:06;;;;;;;;;;;;;;;15.25;39.86;96537.53;4219515;28;5689;-71
2022/04/18 14:50:08;;;;;;;;;;;;;;;15.28;39.12;96535.22;4233740;28;5594;-71
2022/04/18 14:52:10;;;;;;;;;;;;;;;15.27;39.28;96528.25;4233784;28;6601;-71
2022/04/18 14:54:11;;;;;;;;;;;;;;;15.29;39.89;96530.69;4233991;28;5594;-71
2022/04/18 14:56:13;;;;;;;;;;;;;;;15.28;40.22;96523.75;4215850;28;5104;-70
2022/04/18 14:58:18;;;;;;;;;;;;;;;15.26;40.31;96526.63;4233999;28;5624;-72
2022/04/18 15:00:20;;;;;;;;;;;;;;;15.35;40.14;96521.78;4234119;28;5789;-71
2022/04/18 15:02:22;;;;;;;;;;;;;;;15.38;40.24;96518.66;4233702;28;5788;-71
2022/04/18 15:04:24;;;;;;;;;;;;;;;15.36;39.81;96520.75;4233674;28;5733;-71
2022/04/18 15:06:25;;;;;;;;;;;;;;;15.42;40.01;96517.19;4234092;28;5701;-71
2022/04/18 15:08:27;;;;;;;;;;;;;;;15.43;40.05;96522.28;4233954;28;6259;-71
2022/04/18 15:10:29;;;;;;;;;;;;;;;15.35;39.85;96521.78;4215436;28;5689;-72
2022/04/18 15:12:30;;;;;;;;;;;;;;;15.39;39.25;96521.09;4233578;28;5648;-72
2022/04/18 15:14:33;;;;;;;;;;;;;;;15.43;38.83;96522.28;4227650;28;5672;-71
2022/04/18 15:16:34;;;;;;;;;;;;;;;15.43;38.86;96518.81;4215660;28;5617;-72
2022/04/18 15:18:36;;;;;;;;;;;;;;;15.48;38.96;96518.91;4216648;28;5680;-71
2022/04/18 15:20:38;;;;;;;;;;;;;;;15.50;39.33;96511.50;4215515;28;5625;-71
2022/04/18 15:22:39;;;;;;;;;;;;;;;15.56;39.16;96515.09;4216875;28;5672;-71
2022/04/18 15:24:41;;;;;;;;;;;;;;;15.49;37.97;96509.06;4218765;28;5755;-71
2022/04/18 15:26:43;;;;;;;;;;;;;;;15.51;39.77;96506.97;4220312;28;5736;-71
2022/04/18 15:28:45;;;;;;;;;;;;;;;15.48;39.34;96516.25;4218748;28;5692;-72
2022/04/18 15:33:06;;;;;;;;;;;;;;;15.39;39.61;96513.09;4220360;28;5680;-71
2022/04/18 15:35:08;;;;;;;;;;;;;;;15.38;40.00;96508.00;4218602;28;5801;-71
2022/04/18 15:37:13;;;;;;;;;;;;;;;15.37;40.39;96509.06;4219996;28;5669;-71
2022/04/18 15:39:14;;;;;;;;;;;;;;;15.40;40.74;96505.94;4220193;28;5743;-71
2022/04/18 15:41:16;;;;;;;;;;;;;;;15.43;40.81;96510.81;4220122;28;5843;-72
2022/04/18 15:43:18;;;;;;;;;;;;;;;15.48;40.61;96512.78;4218717;28;5632;-71
2022/04/18 15:45:20;;;;;;;;;;;;;;;15.48;40.75;96502.94;4236547;28;5643;-71
2022/04/18 15:47:22;;;;;;;;;;;;;;;15.54;40.98;96506.53;4236099;28;5764;-71
2022/04/18 15:49:24;;;;;;;;;;;;;;;15.56;40.80;96507.94;4219502;28;5720;-72
2022/04/18 15:51:29;;;;;;;;;;;;;;;15.53;41.23;96500.41;4226150;28;5088;-71
2022/04/18 15:53:31;;;;;;;;;;;;;;;15.51;41.69;96504.31;4236764;28;5655;-72
2022/04/18 15:55:32;;;;;;;;;;;;;;;15.55;40.83;96510.81;4236735;28;5833;-71
2022/04/18 15:57:34;;;;;;;;;;;;;;;15.59;41.05;96515.44;4236767;28;5733;-71
2022/04/18 15:59:36;;;;;;;;;;;;;;;15.56;40.91;96507.94;4235266;28;5810;-71
2022/04/18 16:01:38;;;;;;;;;;;;;;;15.59;40.54;96510.13;4236493;27;5643;-71
2022/04/18 16:03:40;;;;;;;;;;;;;;;15.60;40.88;96503.78;4236280;28;5677;-71
2022/04/18 16:05:43;;;;;;;;;;;;;;;15.55;40.84;96508.97;4236211;28;5663;-70
2022/04/18 16:07:44;;;;;;;;;;;;;;;15.57;40.63;96506.06;4236538;28;5671;-71
2022/04/18 16:09:46;;;;;;;;;;;;;;;15.56;40.50;96502.59;4236652;28;6349;-72
2022/04/18 16:11:48;;;;;;;;;;;;;;;15.58;40.86;96508.50;4236589;28;5812;-71
2022/04/18 16:13:50;;;;;;;;;;;;;;;15.56;40.58;96505.25;4235971;28;5754;-71
2022/04/18 16:15:52;;;;;;;;;;;;;;;15.60;41.12;96500.31;4219291;28;5696;-71
2022/04/18 16:17:54;;;;;;;;;;;;;;;15.56;40.78;96499.94;4218205;28;5608;-71
2022/04/18 16:19:55;;;;;;;;;;;;;;;15.51;40.45;96502.47;4217898;28;5752;-71
2022/04/18 16:21:57;;;;;;;;;;;;;;;15.49;40.26;96504.56;4218333;28;5605;-71
2022/04/18 16:24:00;;;;;;;;;;;;;;;15.36;39.77;96504.78;4233090;28;5675;-71
2022/04/18 16:26:02;;;;;;;;;;;;;;;15.37;40.34;96503.72;4234520;28;5719;-71
2022/04/18 16:28:04;;;;;;;;;;;;;;;15.08;37.91;96503.59;4232670;28;5862;-70
2022/04/18 16:32:46;;;;;;;;;;;;;;;15.14;39.58;96502.66;4234815;28;5742;-70
2022/04/18 16:34:47;;;;;;;;;;;;;;;15.12;38.98;96499.41;4231613;28;5903;-70
2022/04/18 16:36:50;;;;;;;;;;;;;;;15.10;39.04;96506.81;4230411;28;6365;-70
2022/04/18 16:38:52;;;;;;;;;;;;;;;15.08;39.17;96502.78;4229794;28;5671;-70
2022/04/18 16:45:48;;;;;;;;;;;;;;;14.59;39.56;96509.19;4225340;28;5760;-70
2022/04/18 16:47:50;;;;;;;;;;;;;;;14.77;39.81;96514.47;4227060;28;5160;-70
2022/04/18 16:49:52;;;;;;;;;;;;;;;14.59;42.00;96510.00;4223421;27;5741;-71
2022/04/18 16:51:53;;;;;;;;;;;;;;;14.62;44.20;96509.56;4227078;28;5736;-72
2022/04/18 16:53:55;;;;;;;;;;;;;;;14.67;44.16;96499.06;4224143;28;5703;-70
2022/04/18 16:55:57;;;;;;;;;;;;;;;14.79;43.19;96499.09;4227898;28;5942;-70
2022/04/18 16:57:59;;;;;;;;;;;;;;;14.55;42.47;96501.66;4218818;28;5795;-71
2022/04/18 17:00:01;;;;;;;;;;;;;;;14.54;42.18;96500.06;4221175;28;5651;-71
2022/04/18 17:02:04;;;;;;;;;;;;;;;14.69;42.73;96496.16;4227362;28;5716;-71
2022/04/18 17:04:06;;;;;;;;;;;;;;;14.79;42.16;96499.09;4230303;28;5679;-70
2022/04/18 17:06:08;;;;;;;;;;;;;;;14.78;42.15;96500.94;4223527;28;7025;-70
2022/04/18 17:08:09;;;;;;;;;;;;;;;14.81;42.49;96497.81;4222145;28;5629;-71
2022/04/18 17:10:17;;;;;;;;;;;;;;;14.81;42.78;96489.03;4224699;28;5658;-70
2022/04/18 17:12:19;;;;;;;;;;;;;;;14.89;42.59;96487.91;4234170;28;5656;-72
2022/04/18 17:14:20;;;;;;;;;;;;;;;14.91;43.20;96491.97;4229557;27;5659;-71
2022/04/18 17:16:22;;;;;;;;;;;;;;;14.93;42.89;96489.88;4228852;28;5644;-68
2022/04/18 17:18:24;;;;;;;;;;;;;;;14.94;43.55;96494.16;4218882;28;5831;-71
2022/04/18 17:20:25;;;;;;;;;;;;;;;14.95;43.24;96487.81;4224750;28;5760;-71
2022/04/18 17:22:27;;;;;;;;;;;;;;;15.00;42.91;96490.59;4229968;28;5934;-72
2022/04/18 17:24:29;;;;;;;;;;;;;;;15.05;43.36;96495.22;4227093;28;5601;-71
2022/04/18 17:26:30;;;;;;;;;;;;;;;15.09;43.44;96496.41;4229983;28;5730;-72
2022/04/18 17:28:32;;;;;;;;;;;;;;;14.99;45.44;96494.28;4220006;28;5717;-71
2022/04/18 17:30:34;;;;;;;;;;;;;;;14.96;45.98;96496.63;4220431;27;5688;-72
2022/04/18 17:32:35;;;;;;;;;;;;;;;15.02;45.90;96499.16;4229839;28;5818;-71
2022/04/18 17:34:41;;;;;;;;;;;;;;;15.06;45.95;96503.00;4223765;28;5835;-71
2022/04/18 17:36:43;;;;;;;;;;;;;;;15.08;46.19;96498.25;4223658;28;5108;-71
2022/04/18 17:39:04;;;;;;;;;;;;;;;15.06;46.43;96492.34;4221775;28;5876;-71
2022/04/18 17:41:06;;;;;;;;;;;;;;;15.00;46.16;96498.59;4220867;27;5843;-71
2022/04/18 17:43:08;;;;;;;;;;;;;;;14.99;46.68;96496.97;4220231;28;5594;-70
2022/04/18 17:45:10;;;;;;;;;;;;;;;14.96;46.43;96492.09;4229028;28;5636;-72
2022/04/18 17:47:11;;;;;;;;;;;;;;;14.98;46.05;96500.66;4226946;27;5761;-70
2022/04/18 17:49:13;;;;;;;;;;;;;;;14.96;46.37;96507.25;4228448;28;5747;-70
2022/04/18 17:51:15;;;;;;;;;;;;;;;14.89;45.86;96504.69;4229491;27;6447;-68
2022/04/18 17:55:50;;;;;;;;;;;;;;;14.80;44.47;96500.72;4224430;28;5655;-68
2022/04/18 17:58:00;;;;;;;;;;;;;;;14.61;44.13;96497.31;4226377;28;6817;-70
2022/04/18 18:00:04;;;;;;;;;;;;;;;14.55;44.15;96499.00;4227954;28;5675;-72
2022/04/18 18:02:06;;;;;;;;;;;;;;;14.43;45.63;96495.47;4227157;28;6027;-75
2022/04/18 18:04:10;;;;;;;;;;;;;;;14.51;45.67;96502.34;4216368;28;5772;-74
2022/04/18 18:06:11;;;;;;;;;;;;;;;14.57;45.80;96506.75;4228654;28;5664;-69
2022/04/18 18:08:13;;;;;;;;;;;;;;;14.63;46.16;96503.22;4232816;28;5750;-70
2022/04/18 18:10:15;;;;;;;;;;;;;;;14.61;46.10;96502.63;4232972;28;5853;-70
2022/04/18 18:12:17;;;;;;;;;;;;;;;14.56;46.49;96511.28;4233655;27;5755;-71
2022/04/18 18:14:19;;;;;;;;;;;;;;;14.59;47.18;96503.88;4226027;27;5647;-74
2022/04/18 18:16:20;;;;;;;;;;;;;;;14.56;46.65;96505.94;4233871;28;5679;-70
2022/04/18 18:18:22;;;;;;;;;;;;;;;14.55;47.41;96507.00;4233431;28;5643;-68
2022/04/18 18:20:24;;;;;;;;;;;;;;;14.61;45.95;96509.78;4231780;28;5710;-71
2022/04/18 18:22:26;;;;;;;;;;;;;;;14.60;45.35;96510.81;4232350;28;6420;-74
2022/04/18 18:24:27;;;;;;;;;;;;;;;14.60;45.61;96510.81;4234560;27;5671;-82
2022/04/18 18:26:30;;;;;;;;;;;;;;;14.48;44.79;96516.91;4229384;28;5680;-84
2022/04/18 18:28:32;;;;;;;;;;;;;;;14.45;44.23;96514.69;4230598;28;5622;-75
2022/04/18 18:30:37;;;;;;;;;;;;;;;14.45;44.34;96520.00;4230753;28;5830;-69
2022/04/18 18:32:42;;;;;;;;;;;;;;;14.35;42.51;96524.19;4232640;28;5667;-69
2022/04/18 18:34:44;;;;;;;;;;;;;;;14.25;42.18;96519.41;4233253;28;5962;-74
2022/04/18 18:36:46;;;;;;;;;;;;;;;14.27;43.09;96525.34;4229684;27;5742;-75
2022/04/18 18:38:47;;;;;;;;;;;;;;;14.24;42.74;96528.41;4232576;28;5824;-72
2022/04/18 18:40:49;;;;;;;;;;;;;;;14.26;42.95;96527.16;4231782;28;5834;-78
2022/04/18 18:42:51;;;;;;;;;;;;;;;14.26;43.39;96524.50;4231875;27;5751;-71